createdAt,value
2022-09-25T00:00:30.756Z,99973.50
2022-09-25T00:02:57.089Z,99966.97
2022-09-25T00:05:23.441Z,99956.59
2022-09-25T00:07:49.705Z,99963.78
2022-09-25T00:10:15.969Z,99965.00
2022-09-25T00:12:42.269Z,99963.06
2022-09-25T00:15:08.512Z,99960.97
2022-09-25T00:17:34.798Z,99955.84
2022-09-25T00:20:01.188Z,99958.41
2022-09-25T00:22:28.008Z,99957.53
2022-09-25T00:24:54.273Z,99965.25
2022-09-25T00:27:20.545Z,99961.59
2022-09-25T00:29:47.517Z,99966.69
2022-09-25T00:32:13.781Z,99959.25
2022-09-25T00:34:40.370Z,99955.72
2022-09-25T00:37:06.627Z,99953.50
2022-09-25T00:39:32.875Z,99951.66
2022-09-25T00:41:59.138Z,99953.50
2022-09-25T00:44:25.430Z,99945.72
2022-09-25T00:46:51.683Z,99951.69
2022-09-25T00:49:17.930Z,99951.69
2022-09-25T00:51:44.184Z,99955.94
2022-09-25T00:54:10.617Z,99958.53
2022-09-25T00:56:37.001Z,99955.47
2022-09-25T00:59:03.265Z,99955.72
2022-09-25T01:01:29.540Z,99960.38
2022-09-25T01:03:56.038Z,99953.78
2022-09-25T01:06:22.293Z,99948.25
2022-09-25T01:08:48.541Z,99951.06
2022-09-25T01:11:14.862Z,99948.38
2022-09-25T01:13:41.238Z,99947.38
2022-09-25T01:16:08.120Z,99941.16
2022-09-25T01:18:34.393Z,99943.38
2022-09-25T01:21:00.638Z,99941.41
2022-09-25T01:23:26.908Z,99944.97
2022-09-25T01:25:55.964Z,99934.22
2022-09-25T01:28:22.255Z,99943.97
2022-09-25T01:30:48.547Z,99943.00
2022-09-25T01:33:14.927Z,99935.78
2022-09-25T01:35:41.194Z,99939.31
2022-09-25T01:38:07.616Z,99936.03
2022-09-25T01:40:33.949Z,99942.00
2022-09-25T01:43:01.481Z,99948.97
2022-09-25T01:45:28.551Z,99944.44
2022-09-25T01:47:54.958Z,99943.47
2022-09-25T01:50:21.201Z,99953.50
2022-09-25T01:52:47.439Z,99951.78
2022-09-25T01:55:13.686Z,99955.19
2022-09-25T01:57:39.956Z,99953.25
2022-09-25T02:00:06.205Z,99951.28
2022-09-25T02:02:35.125Z,99943.84
2022-09-25T02:05:01.481Z,99954.31
2022-09-25T02:07:27.758Z,99952.63
2022-09-25T02:09:54.048Z,99954.31
2022-09-25T02:12:20.323Z,99952.38
2022-09-25T02:14:46.593Z,99953.94
2022-09-25T02:17:12.857Z,99954.78
2022-09-25T02:19:57.758Z,99948.50
2022-09-25T02:22:24.640Z,99946.03
2022-09-25T02:24:54.109Z,99957.00
2022-09-25T02:27:22.835Z,99955.53
2022-09-25T02:29:49.106Z,99947.09
2022-09-25T02:32:15.608Z,99943.84
2022-09-25T02:34:41.855Z,99938.06
2022-09-25T02:37:08.130Z,99933.28
2022-09-25T02:39:34.388Z,99938.66
2022-09-25T02:42:00.656Z,99942.72
2022-09-25T02:44:26.909Z,99944.41
2022-09-25T02:46:53.172Z,99942.84
2022-09-25T02:49:19.431Z,99940.03
2022-09-25T02:51:45.680Z,99943.19
2022-09-25T02:54:12.012Z,99935.84
2022-09-25T02:56:38.349Z,99934.75
2022-09-25T02:59:06.680Z,99936.50
2022-09-25T03:01:32.984Z,99935.13
2022-09-25T03:03:59.304Z,99937.81
2022-09-25T03:06:25.556Z,99940.25
2022-09-25T03:08:52.904Z,99938.16
2022-09-25T03:11:19.695Z,99942.09
2022-09-25T03:13:45.955Z,99939.28
2022-09-25T03:16:12.254Z,99940.13
2022-09-25T03:18:38.591Z,99932.16
2022-09-25T03:21:04.839Z,99928.53
2022-09-25T03:23:32.176Z,99927.06
2022-09-25T03:25:58.430Z,99931.34
2022-09-25T03:28:24.706Z,99923.91
2022-09-25T03:30:52.363Z,99925.59
2022-09-25T03:33:18.710Z,99927.06
2022-09-25T03:35:44.955Z,99928.78
2022-09-25T03:38:12.429Z,99927.66
2022-09-25T03:40:38.763Z,99925.88
2022-09-25T03:45:30.953Z,99928.81
2022-09-25T03:47:57.229Z,99928.44
2022-09-25T03:50:23.470Z,99921.69
2022-09-25T03:52:49.797Z,99925.84
2022-09-25T03:55:16.074Z,99921.56
2022-09-25T03:57:42.892Z,99921.56
2022-09-25T04:00:09.933Z,99926.34
2022-09-25T04:02:36.265Z,99921.22
2022-09-25T04:05:04.037Z,99919.25
2022-09-25T04:07:30.407Z,99918.16
2022-09-25T04:09:56.672Z,99915.34
2022-09-25T04:12:22.922Z,99920.09
2022-09-25T04:14:49.173Z,99931.47
2022-09-25T04:17:15.437Z,99923.41
2022-09-25T04:19:41.679Z,99926.78
2022-09-25T04:22:07.940Z,99936.59
2022-09-25T04:24:49.564Z,99943.84
2022-09-25T04:27:15.848Z,99942.59
2022-09-25T04:29:42.427Z,99938.66
2022-09-25T04:32:27.431Z,99928.44
2022-09-25T04:34:53.674Z,99929.88
2022-09-25T04:37:23.178Z,99936.84
2022-09-25T04:39:49.433Z,99937.44
2022-09-25T04:42:15.705Z,99933.63
2022-09-25T04:44:41.946Z,99934.50
2022-09-25T04:47:08.212Z,99934.00
2022-09-25T04:49:34.452Z,99939.28
2022-09-25T04:52:00.760Z,99930.22
2022-09-25T04:54:27.477Z,99931.94
2022-09-25T04:56:54.227Z,99932.41
2022-09-25T04:59:20.468Z,99937.91
2022-09-25T05:01:46.873Z,99938.78
2022-09-25T05:04:14.288Z,99937.91
2022-09-25T05:06:40.624Z,99942.44
2022-09-25T05:09:06.971Z,99940.72
2022-09-25T05:11:33.265Z,99939.63
2022-09-25T05:13:59.521Z,99937.91
2022-09-25T05:16:27.948Z,99942.19
2022-09-25T05:18:54.254Z,99939.34
2022-09-25T05:21:20.509Z,99943.88
2022-09-25T05:23:46.769Z,99943.16
2022-09-25T05:26:13.084Z,99942.19
2022-09-25T05:28:39.334Z,99945.34
2022-09-25T05:31:05.705Z,99944.50
2022-09-25T05:33:32.047Z,99951.69
2022-09-25T05:35:58.300Z,99949.63
2022-09-25T05:38:24.547Z,99948.03
2022-09-25T05:40:51.214Z,99946.84
2022-09-25T05:43:17.559Z,99947.31
2022-09-25T05:45:43.872Z,99955.84
2022-09-25T05:48:10.216Z,99953.88
2022-09-25T05:50:36.482Z,99957.41
2022-09-25T05:53:02.749Z,99952.28
2022-09-25T05:55:29.011Z,99959.22
2022-09-25T05:57:55.260Z,99952.63
2022-09-25T06:00:21.522Z,99958.56
2022-09-25T06:02:47.797Z,99947.22
2022-09-25T06:05:14.674Z,99950.66
2022-09-25T06:07:43.975Z,99958.47
2022-09-25T06:10:10.711Z,99955.31
2022-09-25T06:12:36.987Z,99946.03
2022-09-25T06:15:03.235Z,99948.47
2022-09-25T06:17:29.502Z,99948.94
2022-09-25T06:19:55.746Z,99943.75
2022-09-25T06:22:22.023Z,99945.34
2022-09-25T06:24:48.884Z,99947.13
2022-09-25T06:27:15.156Z,99941.81
2022-09-25T06:29:41.412Z,99941.88
2022-09-25T06:32:07.666Z,99949.59
2022-09-25T06:34:33.924Z,99948.09
2022-09-25T06:37:00.194Z,99943.41
2022-09-25T06:39:26.453Z,99949.66
2022-09-25T06:41:53.022Z,99941.75
2022-09-25T06:44:19.402Z,99941.53
2022-09-25T06:46:46.898Z,99946.63
2022-09-25T06:49:13.394Z,99938.34
2022-09-25T06:51:40.183Z,99947.44
2022-09-25T06:54:06.826Z,99951.50
2022-09-25T06:56:33.123Z,99948.41
2022-09-25T06:58:59.367Z,99957.03
2022-09-25T07:01:25.698Z,99956.03
2022-09-25T07:03:51.997Z,99948.56
2022-09-25T07:06:18.246Z,99959.00
2022-09-25T07:08:44.545Z,99958.72
2022-09-25T07:11:10.823Z,99964.38
2022-09-25T07:13:37.095Z,99961.56
2022-09-25T07:16:03.445Z,99958.31
2022-09-25T07:18:29.751Z,99967.97
2022-09-25T07:20:56.073Z,99967.25
2022-09-25T07:23:22.427Z,99964.16
2022-09-25T07:25:48.710Z,99958.78
2022-09-25T07:28:15.737Z,99954.00
2022-09-25T07:30:42.129Z,99964.97
2022-09-25T07:33:08.468Z,99957.84
2022-09-25T07:35:34.713Z,99954.44
2022-09-25T07:38:00.994Z,99956.00
2022-09-25T07:40:28.714Z,99955.44
2022-09-25T07:42:54.990Z,99952.34
2022-09-25T07:45:21.248Z,99958.13
2022-09-25T07:47:47.498Z,99958.56
2022-09-25T07:50:15.654Z,99957.44
2022-09-25T07:52:42.171Z,99953.38
2022-09-25T07:55:08.427Z,99958.41
2022-09-25T07:57:34.741Z,99953.34
2022-09-25T08:00:00.996Z,99955.00
2022-09-25T08:02:27.314Z,99943.38
2022-09-25T08:04:54.507Z,99948.78
2022-09-25T08:07:20.691Z,99946.41
2022-09-25T08:09:46.950Z,99945.47
2022-09-25T08:12:13.604Z,99947.88
2022-09-25T08:14:39.871Z,99942.06
2022-09-25T08:17:06.119Z,99941.63
2022-09-25T08:19:33.132Z,99939.22
2022-09-25T08:21:59.378Z,99933.50
2022-09-25T08:24:25.627Z,99931.28
2022-09-25T08:26:51.885Z,99934.84
2022-09-25T08:29:18.420Z,99929.16
2022-09-25T08:31:44.772Z,99940.53
2022-09-25T08:34:36.312Z,99927.88
2022-09-25T08:36:57.956Z,99927.59
2022-09-25T08:39:24.221Z,99924.88
2022-09-25T08:41:50.558Z,99919.50
2022-09-25T08:44:16.818Z,99920.06
2022-09-25T08:47:01.862Z,99921.47
2022-09-25T08:49:28.383Z,99918.06
2022-09-25T08:51:54.651Z,99917.19
2022-09-25T08:54:20.898Z,99921.44
2022-09-25T08:56:47.661Z,99922.69
2022-09-25T08:59:13.904Z,99922.00
2022-09-25T09:01:40.227Z,99918.84
2022-09-25T09:04:06.753Z,99919.31
2022-09-25T09:06:33.046Z,99915.13
2022-09-25T09:08:59.311Z,99918.19
2022-09-25T09:11:25.594Z,99909.38
2022-09-25T09:13:51.939Z,99905.16
2022-09-25T09:16:18.238Z,99903.03
2022-09-25T09:18:44.543Z,99902.00
2022-09-25T09:21:10.800Z,99903.97
2022-09-25T09:23:37.085Z,99902.25
2022-09-25T09:26:03.347Z,99904.75
2022-09-25T09:28:30.160Z,99899.78
2022-09-25T09:30:56.485Z,99903.09
2022-09-25T09:33:22.757Z,99904.63
2022-09-25T09:35:49.015Z,99896.94
2022-09-25T09:38:15.272Z,99899.28
2022-09-25T09:40:41.613Z,99899.28
2022-09-25T09:43:07.899Z,99895.97
2022-09-25T09:45:34.177Z,99884.63
2022-09-25T09:48:00.423Z,99886.25
2022-09-25T09:50:26.681Z,99881.75
2022-09-25T09:52:52.927Z,99875.66
2022-09-25T09:55:19.224Z,99870.66
2022-09-25T09:57:45.481Z,99871.81
2022-09-25T10:00:11.745Z,99875.47
2022-09-25T10:02:38.184Z,99873.47
2022-09-25T10:05:04.516Z,99868.50
2022-09-25T10:07:30.773Z,99869.94
2022-09-25T10:09:58.071Z,99871.06
2022-09-25T10:12:25.408Z,99863.69
2022-09-25T10:14:51.842Z,99867.16
2022-09-25T10:17:18.098Z,99860.81
2022-09-25T10:19:44.359Z,99854.44
2022-09-25T10:22:11.982Z,99861.25
2022-09-25T10:24:41.024Z,99857.19
2022-09-25T10:27:07.406Z,99857.84
2022-09-25T10:29:33.657Z,99853.75
2022-09-25T10:31:59.924Z,99846.47
2022-09-25T10:34:28.576Z,99840.03
2022-09-25T10:36:58.020Z,99848.59
2022-09-25T10:39:43.514Z,99842.88
2022-09-25T10:42:14.228Z,99830.88
2022-09-25T10:44:40.508Z,99834.59
2022-09-25T10:47:25.554Z,99840.22
2022-09-25T10:50:10.381Z,99835.16
2022-09-25T10:52:36.660Z,99826.81
2022-09-25T10:55:02.927Z,99826.81
2022-09-25T10:57:33.970Z,99823.63
2022-09-25T11:00:00.403Z,99813.59
2022-09-25T11:02:28.316Z,99819.19
2022-09-25T11:04:54.538Z,99823.72
2022-09-25T11:07:27.227Z,99817.63
2022-09-25T11:09:59.065Z,99819.97
2022-09-25T11:12:26.336Z,99811.00
2022-09-25T11:14:55.228Z,99815.22
2022-09-25T11:17:21.776Z,99820.53
2022-09-25T11:19:48.040Z,99815.59
2022-09-25T11:22:14.296Z,99807.94
2022-09-25T11:24:40.564Z,99803.75
2022-09-25T11:27:06.844Z,99805.13
2022-09-25T11:29:33.714Z,99807.94
2022-09-25T11:31:59.997Z,99799.75
2022-09-25T11:34:26.252Z,99799.38
2022-09-25T11:36:52.531Z,99791.75
2022-09-25T11:39:37.601Z,99798.16
2022-09-25T11:42:03.876Z,99797.19
2022-09-25T11:44:32.111Z,99794.19
2022-09-25T11:46:59.821Z,99791.03
2022-09-25T11:49:26.604Z,99792.91
2022-09-25T11:51:52.903Z,99786.88
2022-09-25T11:54:33.359Z,99787.19
2022-09-25T11:57:03.863Z,99783.28
2022-09-25T11:59:30.125Z,99785.34
2022-09-25T12:01:56.402Z,99789.25
2022-09-25T12:04:23.035Z,99786.69
2022-09-25T12:06:49.620Z,99791.16
2022-09-25T12:09:15.905Z,99774.22
2022-09-25T12:11:45.694Z,99777.38
2022-09-25T12:14:12.133Z,99774.41
2022-09-25T12:16:38.504Z,99773.31
2022-09-25T12:19:04.803Z,99771.69
2022-09-25T12:21:34.072Z,99768.03
2022-09-25T12:24:00.409Z,99763.41
2022-09-25T12:26:26.660Z,99761.56
2022-09-25T12:28:52.961Z,99768.47
2022-09-25T12:31:19.345Z,99759.50
2022-09-25T12:33:45.719Z,99758.63
2022-09-25T12:36:11.984Z,99763.81
2022-09-25T12:38:38.259Z,99764.25
2022-09-25T12:41:06.439Z,99758.06
2022-09-25T12:43:33.600Z,99756.19
2022-09-25T12:46:00.455Z,99750.25
2022-09-25T12:48:26.744Z,99751.47
2022-09-25T12:50:53.008Z,99751.78
2022-09-25T12:53:19.263Z,99745.41
2022-09-25T12:55:45.521Z,99740.13
2022-09-25T12:58:12.034Z,99737.91
2022-09-25T13:00:38.765Z,99735.72
2022-09-25T13:03:05.040Z,99731.84
2022-09-25T13:05:31.818Z,99738.91
2022-09-25T13:07:58.109Z,99732.56
2022-09-25T13:10:24.919Z,99732.09
2022-09-25T13:12:51.198Z,99733.03
2022-09-25T13:15:17.455Z,99723.25
2022-09-25T13:17:43.703Z,99729.00
2022-09-25T13:23:01.661Z,99721.75
2022-09-25T13:25:27.960Z,99723.72
2022-09-25T13:27:54.264Z,99717.63
2022-09-25T13:30:20.566Z,99712.28
2022-09-25T13:32:46.834Z,99715.19
2022-09-25T13:35:17.290Z,99708.59
2022-09-25T13:37:45.588Z,99706.25
2022-09-25T13:40:30.456Z,99698.25
2022-09-25T13:42:56.764Z,99696.16
2022-09-25T13:45:23.034Z,99701.38
2022-09-25T13:47:49.499Z,99693.47
2022-09-25T13:50:15.785Z,99700.31
2022-09-25T13:52:42.048Z,99695.06
2022-09-25T13:55:08.318Z,99692.00
2022-09-25T13:57:36.334Z,99687.38
2022-09-25T14:00:03.254Z,99693.28
2022-09-25T14:02:29.514Z,99689.69
2022-09-25T14:04:55.818Z,99687.34
2022-09-25T14:07:22.083Z,99695.28
2022-09-25T14:09:48.368Z,99698.84
2022-09-25T14:12:19.301Z,99700.59
2022-09-25T14:14:52.229Z,99696.66
2022-09-25T14:17:18.504Z,99703.91
2022-09-25T14:19:44.936Z,99696.16
2022-09-25T14:22:11.334Z,99695.91
2022-09-25T14:24:38.186Z,99691.78
2022-09-25T14:27:04.446Z,99680.22
2022-09-25T14:29:30.874Z,99679.59
2022-09-25T14:31:57.825Z,99675.69
2022-09-25T14:34:28.159Z,99664.91
2022-09-25T14:36:54.420Z,99671.38
2022-09-25T14:39:20.689Z,99676.53
2022-09-25T14:41:46.980Z,99676.59
2022-09-25T14:44:14.575Z,99665.78
2022-09-25T14:46:40.889Z,99665.75
2022-09-25T14:49:07.152Z,99663.44
2022-09-25T14:51:33.420Z,99663.28
2022-09-25T14:53:59.757Z,99659.56
2022-09-25T14:56:26.022Z,99653.81
2022-09-25T14:58:52.271Z,99652.25
2022-09-25T15:01:19.069Z,99653.78
2022-09-25T15:03:46.779Z,99657.03
2022-09-25T15:06:16.347Z,99655.50
2022-09-25T15:08:42.896Z,99664.69
2022-09-25T15:11:09.168Z,99659.06
2022-09-25T15:13:35.442Z,99654.72
2022-09-25T15:16:20.518Z,99660.97
2022-09-25T15:18:46.874Z,99660.84
2022-09-25T15:21:13.137Z,99660.84
2022-09-25T15:23:39.806Z,99664.03
2022-09-25T15:26:06.058Z,99669.47
2022-09-25T15:28:32.310Z,99665.94
2022-09-25T15:30:58.650Z,99666.28
2022-09-25T15:33:25.503Z,99667.84
2022-09-25T15:35:51.789Z,99667.41
2022-09-25T15:38:18.411Z,99656.91
2022-09-25T15:40:44.739Z,99659.75
2022-09-25T15:43:11.069Z,99659.94
2022-09-25T15:45:37.399Z,99659.63
2022-09-25T15:48:03.808Z,99653.75
2022-09-25T15:50:30.109Z,99655.97
2022-09-25T15:52:56.384Z,99660.44
2022-09-25T15:55:22.638Z,99652.44
2022-09-25T15:57:48.926Z,99665.94
2022-09-25T16:00:33.871Z,99660.84
2022-09-25T16:03:18.821Z,99667.31
2022-09-25T16:05:45.377Z,99669.22
2022-09-25T16:08:11.740Z,99664.31
2022-09-25T16:10:38.000Z,99662.97
2022-09-25T16:13:04.273Z,99662.66
2022-09-25T16:15:30.976Z,99668.63
2022-09-25T16:18:01.418Z,99666.75
2022-09-25T16:20:30.802Z,99671.50
2022-09-25T16:22:57.127Z,99663.03
2022-09-25T16:25:25.552Z,99665.44
2022-09-25T16:27:51.810Z,99661.50
2022-09-25T16:30:18.053Z,99658.47
2022-09-25T16:32:44.306Z,99661.69
2022-09-25T16:35:10.564Z,99651.34
2022-09-25T16:37:36.872Z,99661.38
2022-09-25T16:40:03.278Z,99656.13
2022-09-25T16:42:29.549Z,99665.47
2022-09-25T16:44:56.484Z,99667.19
2022-09-25T16:47:23.877Z,99663.47
2022-09-25T16:49:50.354Z,99670.22
2022-09-25T16:52:20.506Z,99669.53
2022-09-25T16:54:46.956Z,99667.44
2022-09-25T16:57:17.075Z,99660.34
2022-09-25T16:59:43.328Z,99667.63
2022-09-25T17:02:09.681Z,99659.66
2022-09-25T17:04:38.650Z,99666.44
2022-09-25T17:07:04.960Z,99663.19
2022-09-25T17:09:31.349Z,99663.00
2022-09-25T17:11:57.649Z,99660.28
2022-09-25T17:14:23.960Z,99660.59
2022-09-25T17:16:50.215Z,99652.13
2022-09-25T17:19:16.734Z,99664.72
2022-09-25T17:21:42.982Z,99656.59
2022-09-25T17:24:09.264Z,99654.03
2022-09-25T17:26:35.546Z,99663.84
2022-09-25T17:29:01.820Z,99668.22
2022-09-25T17:31:28.146Z,99656.88
2022-09-25T17:33:54.456Z,99668.88
2022-09-25T17:36:20.703Z,99666.28
2022-09-25T17:38:47.016Z,99669.03
2022-09-25T17:41:13.895Z,99661.84
2022-09-25T17:43:42.957Z,99658.09
2022-09-25T17:46:09.264Z,99653.63
2022-09-25T17:48:35.584Z,99661.94
2022-09-25T17:51:01.875Z,99667.28
2022-09-25T17:53:28.816Z,99661.09
2022-09-25T17:55:55.201Z,99658.94
2022-09-25T17:58:22.059Z,99662.97
2022-09-25T18:00:48.368Z,99666.69
2022-09-25T18:03:14.798Z,99670.91
2022-09-25T18:05:41.110Z,99676.09
2022-09-25T18:08:07.383Z,99659.88
2022-09-25T18:10:33.648Z,99655.16
2022-09-25T18:12:59.975Z,99661.44
2022-09-25T18:15:26.289Z,99655.88
2022-09-25T18:17:52.613Z,99665.34
2022-09-25T18:20:37.428Z,99661.13
2022-09-25T18:23:03.688Z,99669.78
2022-09-25T18:25:29.943Z,99670.63
2022-09-25T18:27:56.199Z,99668.25
2022-09-25T18:30:24.433Z,99673.41
2022-09-25T18:32:51.018Z,99670.84
2022-09-25T18:35:17.271Z,99668.56
2022-09-25T18:37:43.648Z,99672.72
2022-09-25T18:40:09.968Z,99680.50
2022-09-25T18:42:36.256Z,99681.47
2022-09-25T18:45:03.632Z,99670.53
2022-09-25T18:47:29.899Z,99669.72
2022-09-25T18:49:56.140Z,99665.41
2022-09-25T18:52:22.422Z,99667.63
2022-09-25T18:54:48.669Z,99668.19
2022-09-25T18:57:15.066Z,99670.91
2022-09-25T18:59:41.349Z,99672.75
2022-09-25T19:02:07.716Z,99679.84
2022-09-25T19:04:35.055Z,99679.59
2022-09-25T19:07:01.323Z,99682.53
2022-09-25T19:09:28.210Z,99678.44
2022-09-25T19:11:55.185Z,99678.34
2022-09-25T19:14:21.983Z,99673.72
2022-09-25T19:16:48.299Z,99675.97
2022-09-25T19:19:14.876Z,99680.34
2022-09-25T19:21:44.829Z,99679.34
2022-09-25T19:24:11.087Z,99676.34
2022-09-25T19:26:37.358Z,99675.94
2022-09-25T19:29:04.605Z,99677.28
2022-09-25T19:31:31.497Z,99682.72
2022-09-25T19:33:58.058Z,99684.22
2022-09-25T19:36:24.512Z,99689.34
2022-09-25T19:38:50.768Z,99684.34
2022-09-25T19:41:17.021Z,99682.94
2022-09-25T19:43:43.294Z,99683.47
2022-09-25T19:46:10.506Z,99677.72
2022-09-25T19:48:36.838Z,99684.13
2022-09-25T19:51:03.086Z,99678.03
2022-09-25T19:53:29.336Z,99677.31
2022-09-25T19:55:55.611Z,99671.53
2022-09-25T19:58:23.594Z,99674.06
2022-09-25T20:00:50.638Z,99675.38
2022-09-25T20:03:16.930Z,99670.28
2022-09-25T20:05:44.440Z,99669.72
2022-09-25T20:08:10.693Z,99670.59
2022-09-25T20:10:37.004Z,99670.59
2022-09-25T20:13:03.258Z,99677.69
2022-09-25T20:15:29.919Z,99681.78
2022-09-25T20:17:56.301Z,99675.28
2022-09-25T20:20:22.659Z,99673.88
2022-09-25T20:22:48.945Z,99672.72
2022-09-25T20:25:15.540Z,99669.03
2022-09-25T20:27:41.802Z,99684.09
2022-09-25T20:30:08.052Z,99674.88
2022-09-25T20:32:35.094Z,99681.50
2022-09-25T20:35:01.271Z,99672.72
2022-09-25T20:37:27.551Z,99669.88
2022-09-25T20:39:53.851Z,99673.59
2022-09-25T20:42:21.202Z,99675.31
2022-09-25T20:44:47.446Z,99674.03
2022-09-25T21:01:45.922Z,99676.44
2022-09-25T21:04:12.207Z,99675.91
2022-09-25T21:06:38.585Z,99671.94
2022-09-25T21:09:04.838Z,99667.41
2022-09-25T21:11:31.625Z,99672.06
2022-09-25T21:14:02.391Z,99664.13
2022-09-25T21:16:28.697Z,99667.09
2022-09-25T21:18:54.989Z,99666.53
2022-09-25T21:21:21.256Z,99660.16
2022-09-25T21:23:47.962Z,99661.41
2022-09-25T21:26:14.228Z,99659.16
2022-09-25T21:28:40.490Z,99654.31
2022-09-25T21:31:06.850Z,99650.63
2022-09-25T21:33:33.112Z,99658.00
2022-09-25T21:35:59.355Z,99662.53
2022-09-25T21:38:25.631Z,99658.00
2022-09-25T21:40:53.647Z,99657.84
2022-09-25T21:43:20.628Z,99652.44
2022-09-25T21:45:46.939Z,99649.47
2022-09-25T21:48:13.508Z,99642.97
2022-09-25T21:50:40.031Z,99639.56
2022-09-25T21:53:06.283Z,99641.84
2022-09-25T21:55:32.539Z,99648.25
2022-09-25T21:57:58.807Z,99642.69
2022-09-25T22:00:25.047Z,99644.81
2022-09-25T22:02:51.348Z,99641.16
2022-09-25T22:05:17.656Z,99641.81
2022-09-25T22:07:43.925Z,99641.25
2022-09-25T22:10:10.167Z,99641.84
2022-09-25T22:12:36.427Z,99639.84
2022-09-25T22:15:02.711Z,99645.78
2022-09-25T22:17:28.956Z,99634.88
2022-09-25T22:19:55.238Z,99639.25
2022-09-25T22:22:21.507Z,99636.41
2022-09-25T22:24:47.777Z,99631.72
2022-09-25T22:27:14.027Z,99634.44
2022-09-25T22:29:40.280Z,99631.72
2022-09-25T22:32:06.543Z,99627.31
2022-09-25T22:34:32.797Z,99631.47
2022-09-25T22:37:00.383Z,99620.53
2022-09-25T22:39:26.902Z,99610.31
2022-09-25T22:41:53.160Z,99617.97
2022-09-25T22:44:19.619Z,99620.53
2022-09-25T22:46:45.885Z,99619.38
2022-09-25T22:49:12.188Z,99629.94
2022-09-25T22:51:38.472Z,99621.25
2022-09-25T22:54:04.729Z,99629.94
2022-09-25T22:56:30.977Z,99618.00
2022-09-25T22:58:57.219Z,99617.28
2022-09-25T23:01:23.592Z,99619.53
2022-09-25T23:03:49.904Z,99617.53
2022-09-25T23:06:16.164Z,99616.38
2022-09-25T23:08:42.414Z,99610.88
2022-09-25T23:11:08.736Z,99612.16
2022-09-25T23:13:35.024Z,99616.25
2022-09-25T23:16:01.278Z,99603.47
2022-09-25T23:18:27.554Z,99600.63
2022-09-25T23:20:53.814Z,99606.56
2022-09-25T23:23:20.063Z,99601.06
2022-09-25T23:25:46.512Z,99602.88
2022-09-25T23:28:12.781Z,99601.19
2022-09-25T23:30:39.116Z,99603.88
2022-09-25T23:33:05.441Z,99605.16
2022-09-25T23:35:34.385Z,99609.00
2022-09-25T23:38:00.644Z,99614.81
2022-09-25T23:40:26.947Z,99607.41
2022-09-25T23:42:54.421Z,99610.81
2022-09-25T23:45:20.820Z,99608.13
2022-09-25T23:47:47.078Z,99599.91
2022-09-25T23:50:13.332Z,99588.09
2022-09-25T23:52:39.585Z,99591.50
2022-09-25T23:55:06.054Z,99595.91
2022-09-25T23:57:32.307Z,99587.81
2022-09-25T23:59:58.573Z,99588.44
